Weather at Nagykanizsa Airfield

Public forecast

Using degrees Celsius for public forecast. Weather courtesy of forecast.io.

Closest aviation weather report (METAR) to Nagykanizsa Airfield

Closest report is Hévíz–Balaton Airport, 17.6 nm (32.6 km) NNE.

2022/11/27 09:15 (retrieved 26 minutes ago)

LHSM 270915Z AUTO 36008KT CAVOK 07/04 Q1030 NOSIG

Closest aviation forecast (TAF) to Nagykanizsa Airfield

Closest forecast is Maribor Airport, 52.7 nm (97.6 km) W.

2022/11/27 06:06 (retrieved 4 hours ago)

TAF LJMB 270500Z 2706/2806 VRB02KT CAVOK BECMG 2723/2801 0500 FZFG TEMPO 2801/2806 0200 VV002